Time;durP1;ratioP1;P1;durP2;ratioP2;P2;SDS_P1;SDS_P2;PMS_P1;PMS_P2;Temp;Humidity;BMP_temperature;BMP_pressure;BME280_temperature;BME280_humidity;BME280_pressure;Samples;Min_cycle;Max_cycle;Signal;HPM_P1;HPM_P2
2022/09/07 00:00:57;;;;;;;3.15;1.35;;;;;;;;;;5050556;28;20080;-60
2022/09/07 00:03:23;;;;;;;2.97;1.25;;;;;;;;;;5064249;28;20052;-69
2022/09/07 00:05:51;;;;;;;2.83;1.13;;;;;;;;;;5050115;28;20056;-62
2022/09/07 00:08:19;;;;;;;4.50;1.23;;;;;;;;;;5046130;28;20063;-62
2022/09/07 00:10:52;;;;;;;2.75;1.05;;;;;;;;;;5083935;28;20084;-65
2022/09/07 00:13:19;;;;;;;5.25;1.20;;;;;;;;;;5078227;28;20259;-68
2022/09/07 00:15:46;;;;;;;1.90;1.15;;;;;;;;;;5050064;28;20067;-67
2022/09/07 00:18:15;;;;;;;4.38;1.60;;;;;;;;;;5045273;28;20067;-60
2022/09/07 00:20:41;;;;;;;3.22;1.02;;;;;;;;;;5048972;28;20040;-67
2022/09/07 00:23:08;;;;;;;2.25;1.20;;;;;;;;;;5045953;28;20051;-70
2022/09/07 00:25:37;;;;;;;2.95;1.38;;;;;;;;;;5049540;28;20036;-72
2022/09/07 00:28:05;;;;;;;2.30;1.00;;;;;;;;;;5079104;28;20631;-68
2022/09/07 00:30:32;;;;;;;;;;;;;;;;;;5083890;28;20044;-69
2022/09/07 03:02:14;;;;;;;2.83;1.20;;;;;;;;;;5080837;23;20130;-62
2022/09/07 03:04:43;;;;;;;2.00;0.90;;;;;;;;;;5058303;28;20143;-71
2022/09/07 03:07:14;;;;;;;2.83;0.98;;;;;;;;;;5064968;28;20110;-67
2022/09/07 03:09:42;;;;;;;4.20;1.25;;;;;;;;;;5071630;28;20044;-70
2022/09/07 03:12:09;;;;;;;;;;;;;;;;;;5070515;28;20052;-74
2022/09/07 03:14:39;;;;;;;2.20;0.80;;;;;;;;;;5080772;28;19931;-71
2022/09/07 03:17:05;;;;;;;2.17;1.00;;;;;;;;;;5087924;28;20047;-66
2022/09/07 03:19:33;;;;;;;1.73;0.77;;;;;;;;;;5082871;28;20056;-68
2022/09/07 03:22:00;;;;;;;1.92;0.80;;;;;;;;;;5088412;28;20058;-69
2022/09/07 03:24:26;;;;;;;2.10;0.95;;;;;;;;;;5072302;28;20063;-67
2022/09/07 03:26:53;;;;;;;2.60;1.00;;;;;;;;;;5071263;28;20056;-71
2022/09/07 03:29:20;;;;;;;3.25;0.93;;;;;;;;;;5075036;28;20109;-68
2022/09/07 03:31:46;;;;;;;2.58;0.93;;;;;;;;;;5076937;28;20245;-60
2022/09/07 03:34:13;;;;;;;2.17;0.93;;;;;;;;;;5067399;28;20126;-67
2022/09/07 03:36:42;;;;;;;1.92;0.75;;;;;;;;;;5069832;28;20056;-74
2022/09/07 03:39:10;;;;;;;1.20;0.75;;;;;;;;;;5066880;28;20110;-72
2022/09/07 03:41:37;;;;;;;;;;;;;;;;;;5071019;28;20547;-70
2022/09/07 03:44:04;;;;;;;2.35;0.65;;;;;;;;;;5067343;28;19970;-72
2022/09/07 03:46:31;;;;;;;1.73;0.90;;;;;;;;;;5070453;28;20072;-64
2022/09/07 03:48:58;;;;;;;1.05;0.80;;;;;;;;;;5066576;28;20075;-65
2022/09/07 03:51:24;;;;;;;1.65;0.88;;;;;;;;;;5070891;28;20099;-61
2022/09/07 03:53:52;;;;;;;1.23;0.73;;;;;;;;;;5070667;28;20055;-69
2022/09/07 03:56:22;;;;;;;1.42;0.85;;;;;;;;;;5065201;28;20142;-69
2022/09/07 03:58:50;;;;;;;1.33;0.80;;;;;;;;;;5067464;28;20064;-68
2022/09/07 04:01:18;;;;;;;2.40;0.80;;;;;;;;;;5066104;28;20048;-70
2022/09/07 04:03:45;;;;;;;3.00;1.00;;;;;;;;;;5068529;28;20047;-65
2022/09/07 04:06:14;;;;;;;3.58;1.10;;;;;;;;;;5046711;28;20212;-75
2022/09/07 04:08:42;;;;;;;1.95;1.00;;;;;;;;;;5050266;28;20049;-72
2022/09/07 04:11:11;;;;;;;1.50;0.90;;;;;;;;;;5046339;28;20054;-66
2022/09/07 04:13:38;;;;;;;4.75;1.00;;;;;;;;;;5050225;28;20205;-72
2022/09/07 04:16:12;;;;;;;1.52;0.80;;;;;;;;;;5048007;28;20074;-68
2022/09/07 04:18:40;;;;;;;3.53;1.10;;;;;;;;;;5049830;28;20117;-75
2022/09/07 04:21:07;;;;;;;1.20;0.80;;;;;;;;;;5055211;28;20043;-69
2022/09/07 04:23:34;;;;;;;1.40;0.60;;;;;;;;;;5070136;28;20135;-72
2022/09/07 04:26:00;;;;;;;2.60;0.80;;;;;;;;;;5058867;28;20049;-71
2022/09/07 04:28:28;;;;;;;2.13;0.93;;;;;;;;;;5050313;28;20056;-75
2022/09/07 04:30:55;;;;;;;1.05;0.68;;;;;;;;;;5046778;28;20059;-73
2022/09/07 04:33:21;;;;;;;2.55;0.90;;;;;;;;;;5051116;28;20086;-73
2022/09/07 04:35:48;;;;;;;1.50;0.80;;;;;;;;;;5051296;28;20044;-71
2022/09/07 04:38:16;;;;;;;0.80;0.65;;;;;;;;;;5054803;28;20049;-74
2022/09/07 04:40:43;;;;;;;1.45;0.98;;;;;;;;;;5051591;28;20106;-69
2022/09/07 04:43:11;;;;;;;2.42;1.20;;;;;;;;;;5089168;28;20056;-70
2022/09/07 04:45:40;;;;;;;0.85;0.50;;;;;;;;;;5073984;28;20052;-72
2022/09/07 04:48:06;;;;;;;1.48;0.70;;;;;;;;;;5069626;28;20105;-68
2022/09/07 04:50:33;;;;;;;2.70;0.80;;;;;;;;;;5074170;28;20117;-71
2022/09/07 04:52:59;;;;;;;2.45;0.95;;;;;;;;;;5054980;28;20098;-75
2022/09/07 04:55:26;;;;;;;3.10;0.85;;;;;;;;;;5054686;28;20052;-69
2022/09/07 04:57:52;;;;;;;2.38;1.05;;;;;;;;;;5048476;28;20056;-71
2022/09/07 05:00:19;;;;;;;1.67;0.90;;;;;;;;;;5058049;28;20064;-61
2022/09/07 05:02:47;;;;;;;2.13;1.13;;;;;;;;;;5073064;28;20059;-65
2022/09/07 05:05:14;;;;;;;1.55;0.80;;;;;;;;;;5081505;28;20048;-70
2022/09/07 05:07:40;;;;;;;3.08;0.93;;;;;;;;;;5070906;28;20158;-69
2022/09/07 05:10:07;;;;;;;2.20;0.88;;;;;;;;;;5080344;28;20067;-68
2022/09/07 05:12:34;;;;;;;1.77;0.90;;;;;;;;;;5075201;28;20048;-70
2022/09/07 05:15:01;;;;;;;3.40;1.08;;;;;;;;;;5073444;28;20048;-73
2022/09/07 05:17:29;;;;;;;1.92;1.10;;;;;;;;;;5069115;28;20052;-64
2022/09/07 05:19:58;;;;;;;3.20;1.20;;;;;;;;;;5068295;28;20113;-64
2022/09/07 05:22:24;;;;;;;3.55;1.25;;;;;;;;;;5063046;28;20052;-69
2022/09/07 05:24:51;;;;;;;2.58;1.20;;;;;;;;;;5073146;28;20105;-69
2022/09/07 05:27:20;;;;;;;6.15;1.40;;;;;;;;;;5070218;28;20080;-61
2022/09/07 05:29:47;;;;;;;3.50;1.10;;;;;;;;;;5071044;28;20052;-60
2022/09/07 05:32:13;;;;;;;2.88;1.10;;;;;;;;;;5070497;28;20079;-70
2022/09/07 05:34:40;;;;;;;4.53;1.30;;;;;;;;;;5062087;28;20053;-76
2022/09/07 05:37:08;;;;;;;3.38;1.17;;;;;;;;;;5069187;28;20091;-71
2022/09/07 05:39:35;;;;;;;2.08;1.08;;;;;;;;;;5059847;28;20049;-66
2022/09/07 05:42:01;;;;;;;2.80;1.40;;;;;;;;;;5069026;28;20044;-67
2022/09/07 05:44:29;;;;;;;4.07;1.65;;;;;;;;;;5054680;28;20057;-66
2022/09/07 05:46:57;;;;;;;2.77;1.33;;;;;;;;;;5048958;28;20045;-74
2022/09/07 05:49:23;;;;;;;2.42;1.40;;;;;;;;;;5054041;28;20321;-66
2022/09/07 05:51:50;;;;;;;3.45;1.60;;;;;;;;;;5061337;28;20071;-71
2022/09/07 05:54:18;;;;;;;3.67;1.60;;;;;;;;;;5059460;28;20033;-64
2022/09/07 05:56:45;;;;;;;5.30;1.98;;;;;;;;;;5049311;28;20063;-67
2022/09/07 05:59:11;;;;;;;5.15;1.73;;;;;;;;;;5049235;28;20093;-63
2022/09/07 06:01:38;;;;;;;4.38;1.80;;;;;;;;;;5068921;28;20048;-69
2022/09/07 06:04:05;;;;;;;5.00;2.00;;;;;;;;;;5064626;28;20064;-64
2022/09/07 06:06:32;;;;;;;6.72;2.10;;;;;;;;;;5069348;28;20101;-71
2022/09/07 06:08:58;;;;;;;3.83;1.40;;;;;;;;;;5072129;28;20054;-72
2022/09/07 06:11:26;;;;;;;3.33;1.40;;;;;;;;;;5068220;28;20063;-65
2022/09/07 06:13:53;;;;;;;4.07;1.40;;;;;;;;;;5068655;28;20052;-67
2022/09/07 06:16:20;;;;;;;5.75;1.92;;;;;;;;;;5042975;28;20070;-69
2022/09/07 06:18:49;;;;;;;7.88;3.47;;;;;;;;;;5051525;28;20064;-56
2022/09/07 06:21:17;;;;;;;6.82;1.80;;;;;;;;;;5057307;28;20110;-68
2022/09/07 06:23:44;;;;;;;8.07;3.60;;;;;;;;;;5051899;28;20041;-70
2022/09/07 06:26:12;;;;;;;4.43;2.28;;;;;;;;;;5047875;28;20072;-69
2022/09/07 06:28:41;;;;;;;5.75;3.03;;;;;;;;;;5051309;28;20075;-70
2022/09/07 06:31:09;;;;;;;4.35;1.95;;;;;;;;;;5047847;28;20050;-70
2022/09/07 06:33:36;;;;;;;3.30;1.60;;;;;;;;;;5052435;28;20053;-66
2022/09/07 06:36:04;;;;;;;6.10;2.53;;;;;;;;;;5047615;28;20044;-64
2022/09/07 06:38:31;;;;;;;2.83;1.33;;;;;;;;;;5056070;28;20209;-68
2022/09/07 06:41:00;;;;;;;4.85;2.45;;;;;;;;;;5061244;28;20045;-62
2022/09/07 06:43:27;;;;;;;3.38;1.80;;;;;;;;;;5052075;28;20054;-60
2022/09/07 06:45:56;;;;;;;2.58;1.50;;;;;;;;;;5048000;28;20156;-65
2022/09/07 06:48:23;;;;;;;4.57;1.63;;;;;;;;;;5078814;28;20048;-64
2022/09/07 06:50:57;;;;;;;2.30;1.33;;;;;;;;;;5058870;28;20056;-66
2022/09/07 06:53:23;;;;;;;3.28;1.63;;;;;;;;;;5047081;28;20049;-65
2022/09/07 06:55:50;;;;;;;3.97;1.65;;;;;;;;;;5048708;28;20053;-70
2022/09/07 06:58:17;;;;;;;5.40;1.90;;;;;;;;;;5027334;28;20049;-70
2022/09/07 07:00:46;;;;;;;7.45;3.65;;;;;;;;;;5032869;28;20047;-65
2022/09/07 07:03:15;;;;;;;8.25;3.95;;;;;;;;;;5041438;28;20052;-59
2022/09/07 07:05:45;;;;;;;3.50;1.83;;;;;;;;;;5065334;28;20117;-65
2022/09/07 07:08:12;;;;;;;4.55;2.15;;;;;;;;;;5051810;28;20088;-71
2022/09/07 07:10:39;;;;;;;8.57;4.43;;;;;;;;;;5051931;28;20048;-71
2022/09/07 07:13:05;;;;;;;3.95;1.90;;;;;;;;;;5060027;28;20044;-65
2022/09/07 07:15:32;;;;;;;6.00;3.35;;;;;;;;;;5071554;28;20138;-71
2022/09/07 07:17:59;;;;;;;8.90;3.38;;;;;;;;;;5056369;28;20048;-59
2022/09/07 07:20:27;;;;;;;7.65;2.30;;;;;;;;;;5050516;28;20053;-69
2022/09/07 07:22:53;;;;;;;9.15;3.05;;;;;;;;;;5055231;28;20044;-67
2022/09/07 07:25:20;;;;;;;3.00;1.60;;;;;;;;;;5070372;28;20052;-64
2022/09/07 07:27:47;;;;;;;5.07;2.50;;;;;;;;;;5065734;28;20048;-65
2022/09/07 07:30:14;;;;;;;5.55;2.40;;;;;;;;;;5070203;28;20044;-63
2022/09/07 07:32:41;;;;;;;3.92;2.03;;;;;;;;;;5065397;28;20055;-59
2022/09/07 07:35:08;;;;;;;8.30;3.72;;;;;;;;;;5066822;28;20052;-60
2022/09/07 07:37:36;;;;;;;5.82;2.15;;;;;;;;;;5047349;28;20052;-66
2022/09/07 07:40:03;;;;;;;5.38;3.28;;;;;;;;;;5068223;28;20059;-56
2022/09/07 07:42:31;;;;;;;5.57;2.33;;;;;;;;;;5057014;28;20048;-63
2022/09/07 07:44:58;;;;;;;10.68;5.28;;;;;;;;;;5046104;28;20072;-52
2022/09/07 07:47:25;;;;;;;4.95;2.63;;;;;;;;;;5048758;28;20148;-59
2022/09/07 07:49:52;;;;;;;6.38;3.00;;;;;;;;;;5044891;28;20052;-66
2022/09/07 07:52:19;;;;;;;4.30;2.42;;;;;;;;;;5050701;28;20044;-69
2022/09/07 07:54:47;;;;;;;12.85;6.32;;;;;;;;;;5046796;28;20048;-56
2022/09/07 07:57:15;;;;;;;7.55;2.95;;;;;;;;;;5050091;28;20048;-68
2022/09/07 07:59:42;;;;;;;13.80;6.78;;;;;;;;;;5055065;28;20056;-66
2022/09/07 08:02:13;;;;;;;8.20;4.53;;;;;;;;;;5066890;28;20044;-65
2022/09/07 08:04:40;;;;;;;11.40;5.07;;;;;;;;;;5063615;28;20058;-59
2022/09/07 08:07:17;;;;;;;12.20;5.63;;;;;;;;;;5059781;28;20044;-69
2022/09/07 08:09:55;;;;;;;12.05;5.40;;;;;;;;;;5069337;28;20119;-63
2022/09/07 08:12:21;;;;;;;9.82;4.97;;;;;;;;;;5088906;28;20066;-62
2022/09/07 08:14:48;;;;;;;6.38;3.05;;;;;;;;;;5069895;28;20067;-62
2022/09/07 08:17:16;;;;;;;14.95;8.05;;;;;;;;;;5085919;28;20063;-69
2022/09/07 08:19:42;;;;;;;9.20;3.70;;;;;;;;;;5081619;28;20044;-70
2022/09/07 08:22:09;;;;;;;17.48;10.10;;;;;;;;;;5070525;28;20134;-65
2022/09/07 08:24:36;;;;;;;13.45;5.80;;;;;;;;;;5066658;28;20058;-63
2022/09/07 08:27:07;;;;;;;8.80;4.00;;;;;;;;;;5070155;28;20112;-62
2022/09/07 08:29:34;;;;;;;16.63;9.05;;;;;;;;;;5069774;28;20052;-69
2022/09/07 08:32:01;;;;;;;15.15;7.63;;;;;;;;;;5068527;28;20052;-65
2022/09/07 08:34:27;;;;;;;9.48;5.45;;;;;;;;;;5069837;28;20060;-65
2022/09/07 08:36:57;;;;;;;18.50;10.55;;;;;;;;;;5061942;28;20056;-67
2022/09/07 08:39:23;;;;;;;8.60;4.32;;;;;;;;;;5066993;28;20071;-56
2022/09/07 08:42:01;;;;;;;11.48;5.88;;;;;;;;;;5060122;28;20055;-59
2022/09/07 08:44:31;;;;;;;18.70;5.93;;;;;;;;;;5086643;28;20132;-68
2022/09/07 08:47:00;;;;;;;10.35;4.80;;;;;;;;;;5070792;28;20060;-62
2022/09/07 08:49:31;;;;;;;10.52;5.32;;;;;;;;;;5069175;28;20108;-66
2022/09/07 08:52:00;;;;;;;13.70;7.85;;;;;;;;;;5064607;28;20052;-65
2022/09/07 08:54:27;;;;;;;10.27;5.57;;;;;;;;;;5069857;28;20044;-68
2022/09/07 08:56:56;;;;;;;8.05;4.47;;;;;;;;;;5070685;28;20044;-61
2022/09/07 08:59:24;;;;;;;8.95;4.60;;;;;;;;;;5086133;28;20048;-60
2022/09/07 09:01:52;;;;;;;13.57;7.55;;;;;;;;;;5077152;28;20105;-68
2022/09/07 09:04:19;;;;;;;;;;;;;;;;;;5066760;28;20053;-62
2022/09/07 09:06:53;;;;;;;11.40;6.32;;;;;;;;;;5057039;28;19921;-63
2022/09/07 09:09:25;;;;;;;21.05;10.93;;;;;;;;;;5046577;28;20064;-63
2022/09/07 09:11:55;;;;;;;14.40;7.13;;;;;;;;;;5031737;28;20049;-64
2022/09/07 09:14:27;;;;;;;16.52;9.40;;;;;;;;;;5046567;28;20055;-63
2022/09/07 09:16:58;;;;;;;15.70;8.68;;;;;;;;;;5042604;28;20041;-66
2022/09/07 09:19:40;;;;;;;10.18;5.55;;;;;;;;;;5046954;28;20049;-68
2022/09/07 09:22:12;;;;;;;15.73;9.20;;;;;;;;;;5048840;28;20040;-67
2022/09/07 09:24:41;;;;;;;11.52;6.13;;;;;;;;;;5070176;28;20094;-68
2022/09/07 09:27:10;;;;;;;;;;;;;;;;;;5066262;28;20866;-67
2022/09/07 09:29:37;;;;;;;17.75;8.50;;;;;;;;;;5070059;28;19947;-63
2022/09/07 09:32:18;;;;;;;10.80;6.40;;;;;;;;;;5067361;28;20064;-69
2022/09/07 09:34:59;;;;;;;14.90;7.93;;;;;;;;;;5048908;28;20055;-70
2022/09/07 09:37:37;;;;;;;11.40;5.10;;;;;;;;;;5042575;28;20130;-70
2022/09/07 09:40:08;;;;;;;7.78;4.03;;;;;;;;;;5068896;28;20059;-65
2022/09/07 09:42:35;;;;;;;16.20;9.25;;;;;;;;;;5046823;28;20052;-69
2022/09/07 09:45:03;;;;;;;15.93;8.13;;;;;;;;;;5069813;28;20065;-67
2022/09/07 09:47:31;;;;;;;15.98;8.50;;;;;;;;;;5069790;28;20053;-70
2022/09/07 09:50:01;;;;;;;10.55;5.45;;;;;;;;;;5048963;28;20052;-64
2022/09/07 09:52:29;;;;;;;14.23;6.90;;;;;;;;;;5053088;28;20048;-67
2022/09/07 09:54:56;;;;;;;13.35;6.72;;;;;;;;;;5045750;28;20060;-67
2022/09/07 09:57:39;;;;;;;12.73;6.22;;;;;;;;;;5049422;28;20049;-69
2022/09/07 10:00:06;;;;;;;11.73;6.25;;;;;;;;;;5045159;28;20099;-72
2022/09/07 10:02:33;;;;;;;11.32;6.32;;;;;;;;;;5057357;28;20060;-62
2022/09/07 10:05:04;;;;;;;11.73;6.32;;;;;;;;;;5044505;28;20048;-65
2022/09/07 10:07:31;;;;;;;15.27;8.05;;;;;;;;;;5052218;28;20056;-66
2022/09/07 10:09:59;;;;;;;12.70;7.00;;;;;;;;;;5051617;28;20052;-70
2022/09/07 10:12:28;;;;;;;18.47;7.10;;;;;;;;;;5072841;28;20138;-72
2022/09/07 10:14:56;;;;;;;13.27;6.60;;;;;;;;;;5049287;28;20057;-60
2022/09/07 10:17:27;;;;;;;14.27;6.43;;;;;;;;;;5051908;28;20052;-61
2022/09/07 10:19:58;;;;;;;10.40;5.22;;;;;;;;;;5056744;28;20048;-61
2022/09/07 10:22:32;;;;;;;10.25;4.32;;;;;;;;;;5070852;28;20056;-60
2022/09/07 10:25:00;;;;;;;9.02;4.45;;;;;;;;;;5060420;28;20037;-69
2022/09/07 10:27:30;;;;;;;11.23;5.00;;;;;;;;;;5051630;28;20044;-53
2022/09/07 10:29:56;;;;;;;10.50;4.93;;;;;;;;;;5048025;28;20063;-65
2022/09/07 10:32:26;;;;;;;9.10;5.15;;;;;;;;;;5051375;28;20088;-70
2022/09/07 10:35:01;;;;;;;10.55;5.43;;;;;;;;;;5051077;28;20048;-59
2022/09/07 10:37:35;;;;;;;11.43;5.55;;;;;;;;;;5071714;28;20141;-58
2022/09/07 10:40:07;;;;;;;11.27;4.93;;;;;;;;;;5066843;28;20097;-68
2022/09/07 10:42:35;;;;;;;8.48;3.85;;;;;;;;;;5071876;28;20101;-60
2022/09/07 10:45:08;;;;;;;14.77;5.70;;;;;;;;;;5066592;28;20059;-62
2022/09/07 10:47:42;;;;;;;9.20;5.22;;;;;;;;;;5071503;28;20066;-71
2022/09/07 10:50:12;;;;;;;10.32;4.43;;;;;;;;;;5067663;28;20055;-67
2022/09/07 10:52:44;;;;;;;6.90;3.55;;;;;;;;;;5051244;28;20134;-71
2022/09/07 10:55:15;;;;;;;7.07;4.00;;;;;;;;;;5051869;28;20122;-71
2022/09/07 10:57:50;;;;;;;10.10;3.95;;;;;;;;;;5069325;28;20106;-64
2022/09/07 11:00:18;;;;;;;7.85;3.65;;;;;;;;;;5071420;28;20152;-73
2022/09/07 11:02:50;;;;;;;8.90;3.67;;;;;;;;;;5065629;28;20065;-65
2022/09/07 11:05:19;;;;;;;7.20;2.83;;;;;;;;;;5069638;28;20067;-65
2022/09/07 11:07:57;;;;;;;6.35;2.95;;;;;;;;;;5066892;28;20077;-60
2022/09/07 11:10:27;;;;;;;7.85;3.17;;;;;;;;;;5070332;28;20054;-66
2022/09/07 11:12:56;;;;;;;10.48;3.05;;;;;;;;;;5067552;28;20159;-67
2022/09/07 11:15:26;;;;;;;8.07;3.58;;;;;;;;;;5088499;28;20044;-65
2022/09/07 11:17:56;;;;;;;9.35;3.47;;;;;;;;;;5071502;28;20048;-62
2022/09/07 11:20:25;;;;;;;6.50;2.88;;;;;;;;;;5069287;28;20048;-65
2022/09/07 11:22:57;;;;;;;7.00;2.05;;;;;;;;;;5063415;28;20049;-68
2022/09/07 11:25:27;;;;;;;5.18;2.25;;;;;;;;;;5067370;28;20044;-65
2022/09/07 11:27:56;;;;;;;5.57;2.08;;;;;;;;;;5066160;28;20127;-68
2022/09/07 11:30:25;;;;;;;7.70;2.70;;;;;;;;;;5071346;28;20060;-58
2022/09/07 11:33:00;;;;;;;4.65;1.90;;;;;;;;;;5063296;28;20055;-69
2022/09/07 11:35:46;;;;;;;5.00;1.92;;;;;;;;;;5088096;28;20127;-70
2022/09/07 11:38:25;;;;;;;7.10;1.92;;;;;;;;;;5066228;28;20055;-64
2022/09/07 11:41:06;;;;;;;9.18;2.25;;;;;;;;;;5070959;28;20121;-61
2022/09/07 11:43:36;;;;;;;7.18;2.10;;;;;;;;;;5063645;28;20052;-67
2022/09/07 11:46:05;;;;;;;8.02;2.13;;;;;;;;;;5070514;28;20052;-71
2022/09/07 11:48:33;;;;;;;5.05;1.73;;;;;;;;;;5066137;28;20063;-66
2022/09/07 11:51:01;;;;;;;3.38;1.85;;;;;;;;;;5070365;28;20055;-65
2022/09/07 11:53:31;;;;;;;6.43;2.13;;;;;;;;;;5067413;28;20056;-64
2022/09/07 11:55:59;;;;;;;4.13;1.80;;;;;;;;;;5070508;28;20056;-68
2022/09/07 11:58:35;;;;;;;5.93;1.90;;;;;;;;;;5061232;28;20060;-66
2022/09/07 12:01:10;;;;;;;6.82;2.13;;;;;;;;;;5073252;28;20072;-65
2022/09/07 12:04:02;;;;;;;3.60;1.52;;;;;;;;;;5047811;28;20072;-70
2022/09/07 12:06:43;;;;;;;9.32;2.15;;;;;;;;;;5045767;28;20053;-64
2022/09/07 12:09:16;;;;;;;5.97;1.60;;;;;;;;;;5041785;28;20083;-69
2022/09/07 12:12:05;;;;;;;7.70;1.85;;;;;;;;;;5046946;28;20059;-64
2022/09/07 12:14:37;;;;;;;4.82;1.33;;;;;;;;;;5033888;28;20065;-70
2022/09/07 12:17:11;;;;;;;7.63;2.00;;;;;;;;;;5030837;28;20105;-62
2022/09/07 12:19:38;;;;;;;4.93;1.60;;;;;;;;;;5042648;28;20134;-56
2022/09/07 12:22:05;;;;;;;2.20;1.27;;;;;;;;;;5046671;28;20045;-65
2022/09/07 12:24:47;;;;;;;5.45;1.60;;;;;;;;;;5042331;28;20136;-70
2022/09/07 12:27:33;;;;;;;3.95;1.30;;;;;;;;;;5046713;28;20067;-61
2022/09/07 12:30:20;;;;;;;3.33;1.40;;;;;;;;;;5042693;28;20052;-61
2022/09/07 12:33:18;;;;;;;6.60;1.50;;;;;;;;;;5046534;28;20059;-68
2022/09/07 12:35:45;;;;;;;4.45;1.20;;;;;;;;;;5032042;28;20053;-70
2022/09/07 12:38:27;;;;;;;6.78;1.45;;;;;;;;;;5030329;28;20056;-65
2022/09/07 12:41:00;;;;;;;5.35;1.40;;;;;;;;;;4984617;28;20049;-70
2022/09/07 12:43:58;;;;;;;9.57;1.45;;;;;;;;;;5030345;28;20094;-71
2022/09/07 12:46:43;;;;;;;7.60;2.03;;;;;;;;;;5026173;28;20044;-68
2022/09/07 12:49:17;;;;;;;4.63;1.40;;;;;;;;;;5030163;28;20057;-64
2022/09/07 12:51:51;;;;;;;7.28;1.95;;;;;;;;;;5043066;28;20048;-65
2022/09/07 12:54:22;;;;;;;2.50;1.27;;;;;;;;;;5047835;28;20048;-69
2022/09/07 12:56:53;;;;;;;7.95;1.70;;;;;;;;;;5050347;28;20048;-63
2022/09/07 12:59:31;;;;;;;6.28;1.20;;;;;;;;;;5054118;28;20151;-55
2022/09/07 13:02:01;;;;;;;6.47;1.45;;;;;;;;;;5047538;28;20124;-69
2022/09/07 13:04:48;;;;;;;6.15;1.30;;;;;;;;;;5036968;28;20052;-58
2022/09/07 13:07:29;;;;;;;3.20;1.23;;;;;;;;;;5030484;28;20132;-63
2022/09/07 13:09:57;;;;;;;3.80;1.40;;;;;;;;;;5034281;28;20130;-65
2022/09/07 13:12:27;;;;;;;6.90;2.22;;;;;;;;;;5046213;28;20053;-65
2022/09/07 13:14:55;;;;;;;4.63;1.27;;;;;;;;;;5055230;28;20053;-67
2022/09/07 13:17:43;;;;;;;6.18;1.20;;;;;;;;;;5051293;28;20055;-62
2022/09/07 13:20:29;;;;;;;1.63;0.75;;;;;;;;;;5054711;28;20083;-71
2022/09/07 13:23:16;;;;;;;5.95;1.30;;;;;;;;;;5049229;28;20133;-72
2022/09/07 13:25:50;;;;;;;4.40;1.08;;;;;;;;;;5053084;28;20120;-62
2022/09/07 13:28:27;;;;;;;7.43;1.20;;;;;;;;;;5031602;28;20071;-67
2022/09/07 13:31:05;;;;;;;2.50;1.00;;;;;;;;;;5030914;28;20061;-71
2022/09/07 13:33:46;;;;;;;4.15;1.27;;;;;;;;;;5030443;28;20041;-65
2022/09/07 13:36:20;;;;;;;3.58;1.17;;;;;;;;;;5033919;28;20057;-70
2022/09/07 13:38:48;;;;;;;3.78;1.10;;;;;;;;;;5048284;28;20139;-71
2022/09/07 13:41:17;;;;;;;5.30;1.33;;;;;;;;;;5052970;28;20130;-69
2022/09/07 13:43:46;;;;;;;6.95;1.40;;;;;;;;;;5049350;28;20140;-72
2022/09/07 13:46:16;;;;;;;4.05;1.02;;;;;;;;;;5054053;28;20087;-65
2022/09/07 13:48:46;;;;;;;3.60;1.10;;;;;;;;;;5048767;28;20068;-62
2022/09/07 13:51:14;;;;;;;6.05;1.20;;;;;;;;;;5053388;28;20106;-64
2022/09/07 13:53:40;;;;;;;;;;;;;;;;;;5048097;28;20052;-69
2022/09/07 13:56:17;;;;;;;3.00;1.00;;;;;;;;;;5052098;28;19924;-59
2022/09/07 13:58:45;;;;;;;3.33;1.05;;;;;;;;;;5047849;28;20130;-63
2022/09/07 14:01:16;;;;;;;4.53;1.20;;;;;;;;;;5052693;28;20110;-69
2022/09/07 14:03:45;;;;;;;6.32;1.10;;;;;;;;;;5057366;28;20056;-68
2022/09/07 14:06:13;;;;;;;4.53;1.50;;;;;;;;;;5051075;28;20110;-69
2022/09/07 14:08:41;;;;;;;4.53;1.20;;;;;;;;;;5048403;28;20091;-73
2022/09/07 14:11:18;;;;;;;4.65;1.10;;;;;;;;;;5052632;28;20049;-63
2022/09/07 14:13:45;;;;;;;3.83;1.08;;;;;;;;;;5048747;28;20048;-70
2022/09/07 14:16:22;;;;;;;5.03;1.08;;;;;;;;;;5064515;28;20061;-66
2022/09/07 14:18:50;;;;;;;3.28;1.10;;;;;;;;;;5062584;28;20139;-63
2022/09/07 14:21:19;;;;;;;4.50;1.15;;;;;;;;;;5052350;28;20054;-68
2022/09/07 14:23:49;;;;;;;2.38;0.98;;;;;;;;;;5048137;28;20094;-69
2022/09/07 14:26:19;;;;;;;3.90;0.90;;;;;;;;;;5067110;28;20056;-66
2022/09/07 14:28:46;;;;;;;5.53;1.05;;;;;;;;;;5048665;28;20060;-65
2022/09/07 14:31:14;;;;;;;3.03;1.23;;;;;;;;;;5069105;28;20108;-62
2022/09/07 14:33:50;;;;;;;4.25;1.00;;;;;;;;;;5069743;28;20144;-69
2022/09/07 14:36:18;;;;;;;2.70;1.00;;;;;;;;;;5030802;28;20049;-70
2022/09/07 14:38:45;;;;;;;2.22;1.00;;;;;;;;;;5032123;28;20045;-72
2022/09/07 14:41:14;;;;;;;5.90;1.13;;;;;;;;;;5046824;28;20055;-69
2022/09/07 14:43:52;;;;;;;4.20;1.13;;;;;;;;;;5052222;28;20052;-66
2022/09/07 14:46:21;;;;;;;3.97;1.00;;;;;;;;;;5047699;28;20086;-64
2022/09/07 14:48:49;;;;;;;3.78;1.00;;;;;;;;;;5051457;28;20060;-67
2022/09/07 14:51:16;;;;;;;;;;;;;;;;;;5048871;28;20045;-63
2022/09/07 14:53:46;;;;;;;3.55;1.10;;;;;;;;;;5052085;28;19958;-73
2022/09/07 14:56:18;;;;;;;3.80;1.00;;;;;;;;;;5057599;28;20072;-72
2022/09/07 14:58:46;;;;;;;1.92;1.00;;;;;;;;;;5067855;28;20055;-63
2022/09/07 15:01:24;;;;;;;4.72;0.90;;;;;;;;;;5063428;28;20052;-72
2022/09/07 15:03:50;;;;;;;;;;;;;;;;;;5077714;28;20061;-71
2022/09/07 15:06:32;;;;;;;3.00;0.98;;;;;;;;;;5066238;28;19931;-66
2022/09/07 15:08:58;;;;;;;5.40;1.25;;;;;;;;;;5070898;28;20044;-69
2022/09/07 15:11:27;;;;;;;6.13;1.00;;;;;;;;;;5057739;28;20056;-71
2022/09/07 15:13:53;;;;;;;;;;;;;;;;;;5071689;28;20059;-69
2022/09/07 15:16:22;;;;;;;6.72;1.42;;;;;;;;;;5063324;28;19924;-71
2022/09/07 15:18:54;;;;;;;7.18;2.47;;;;;;;;;;5069740;28;20053;-72
2022/09/07 15:21:21;;;;;;;7.63;1.80;;;;;;;;;;5071206;28;20040;-69
2022/09/07 15:23:49;;;;;;;3.50;1.27;;;;;;;;;;5067983;28;20046;-67
2022/09/07 15:26:15;;;;;;;2.83;1.20;;;;;;;;;;5067959;28;20090;-73
2022/09/07 15:28:42;;;;;;;3.67;1.50;;;;;;;;;;5072141;28;20052;-66
2022/09/07 15:31:09;;;;;;;4.78;1.48;;;;;;;;;;5071753;28;20075;-63
2022/09/07 15:33:36;;;;;;;2.53;1.35;;;;;;;;;;5071337;28;20121;-68
2022/09/07 15:36:06;;;;;;;4.28;1.60;;;;;;;;;;5061373;28;20052;-64
2022/09/07 15:38:33;;;;;;;3.83;1.30;;;;;;;;;;5066445;28;20052;-67
2022/09/07 15:41:02;;;;;;;3.83;1.13;;;;;;;;;;5064641;28;20048;-65
2022/09/07 15:43:29;;;;;;;4.07;1.13;;;;;;;;;;5066660;28;20080;-72
2022/09/07 15:45:55;;;;;;;3.85;1.15;;;;;;;;;;5078312;28;20135;-71
2022/09/07 15:48:24;;;;;;;3.28;1.00;;;;;;;;;;5083352;28;20047;-70
2022/09/07 15:50:50;;;;;;;4.97;1.13;;;;;;;;;;5075894;28;20066;-73
2022/09/07 15:53:19;;;;;;;3.63;1.20;;;;;;;;;;5071130;28;20059;-68
2022/09/07 15:55:52;;;;;;;3.80;1.05;;;;;;;;;;5069633;28;20170;-71
2022/09/07 15:58:19;;;;;;;2.47;1.08;;;;;;;;;;5064597;28;20060;-68
2022/09/07 16:00:46;;;;;;;4.38;1.10;;;;;;;;;;5071725;28;20101;-66
2022/09/07 16:03:12;;;;;;;4.60;1.30;;;;;;;;;;5053332;28;20059;-67
2022/09/07 16:05:42;;;;;;;2.20;1.10;;;;;;;;;;5064960;28;20040;-67
2022/09/07 16:08:09;;;;;;;1.90;1.10;;;;;;;;;;5066084;28;20043;-64
2022/09/07 16:10:37;;;;;;;3.15;1.10;;;;;;;;;;5073629;28;20043;-68
2022/09/07 16:13:04;;;;;;;5.25;1.00;;;;;;;;;;5067166;28;20044;-70
2022/09/07 16:15:31;;;;;;;1.52;1.00;;;;;;;;;;5071713;28;20138;-69
2022/09/07 16:17:58;;;;;;;4.40;1.15;;;;;;;;;;5044827;28;20091;-72
2022/09/07 16:20:24;;;;;;;3.40;1.17;;;;;;;;;;5045978;28;20056;-61
2022/09/07 16:22:52;;;;;;;3.70;0.90;;;;;;;;;;5068146;28;20055;-52
2022/09/07 16:25:19;;;;;;;1.33;0.88;;;;;;;;;;5039270;28;20075;-63
2022/09/07 16:27:47;;;;;;;2.95;1.10;;;;;;;;;;5066845;28;20057;-52
2022/09/07 16:30:16;;;;;;;;;;;;;;;;;;5061415;28;20056;-59
2022/09/07 16:32:43;;;;;;;1.73;1.02;;;;;;;;;;5066375;28;19928;-64
2022/09/07 16:35:09;;;;;;;3.55;1.00;;;;;;;;;;5062082;28;20045;-69
2022/09/07 16:37:38;;;;;;;4.05;1.00;;;;;;;;;;5066083;28;20048;-69
2022/09/07 16:40:05;;;;;;;1.45;0.85;;;;;;;;;;5061288;28;20078;-62
2022/09/07 16:42:32;;;;;;;4.07;1.10;;;;;;;;;;5066169;28;20142;-61
2022/09/07 16:45:00;;;;;;;5.73;1.67;;;;;;;;;;5061989;28;20041;-63
2022/09/07 16:47:27;;;;;;;3.97;1.30;;;;;;;;;;5066680;28;20060;-65
2022/09/07 16:49:54;;;;;;;2.50;1.08;;;;;;;;;;5061658;28;20087;-65
2022/09/07 16:52:22;;;;;;;1.98;0.90;;;;;;;;;;5066150;28;20053;-68
2022/09/07 16:54:49;;;;;;;5.40;1.13;;;;;;;;;;5061577;28;20046;-68
2022/09/07 16:57:16;;;;;;;6.50;1.20;;;;;;;;;;5066416;28;20064;-61
2022/09/07 16:59:43;;;;;;;6.28;1.10;;;;;;;;;;5060188;28;20056;-63
2022/09/07 17:02:14;;;;;;;3.38;1.20;;;;;;;;;;5063611;28;20067;-67
2022/09/07 17:04:42;;;;;;;3.28;0.93;;;;;;;;;;5024951;28;20075;-59
2022/09/07 17:07:09;;;;;;;4.07;1.00;;;;;;;;;;5027608;28;20049;-67
2022/09/07 17:09:36;;;;;;;1.50;0.90;;;;;;;;;;5029023;28;20057;-66
2022/09/07 17:12:02;;;;;;;3.60;0.90;;;;;;;;;;5024588;28;20053;-70
2022/09/07 17:14:30;;;;;;;3.38;1.10;;;;;;;;;;5027750;28;20053;-72
2022/09/07 17:16:57;;;;;;;4.30;1.07;;;;;;;;;;5023765;28;20128;-68
2022/09/07 17:19:28;;;;;;;1.77;0.90;;;;;;;;;;5029039;28;20048;-72
2022/09/07 17:21:54;;;;;;;1.80;1.00;;;;;;;;;;5024776;28;20053;-64
2022/09/07 17:24:21;;;;;;;2.65;1.00;;;;;;;;;;5030060;28;20083;-70
2022/09/07 17:26:48;;;;;;;2.83;1.00;;;;;;;;;;5037656;28;20057;-71